• Join FlightAware (Why Join?)
  • Login
  • US Flag 
02:31PM EDT


 

Airport Tracker/Info


-or-


 

Live Flight TrackerFlight Track Log ✈ N770NC ✈ 09-Jun-2013 ✈ KATL - KCAE

Flight Track Log - Related Links

Times and Time Zones

All times are in EDT time to prevent confusion due to time zone crossing. See the N770NC flight status page for this flight to view local times or setup timezone preferences in your user account.

Time Position Orientation Groundspeed Altitude Reporting Facility
EDT Latitude Longitude Course Direction KTS MPH feet Rate Location/Type
12:23PM 33.6286 -84.4803 241° Southwest 409 471 2,300  Level Atlanta Center
12:24PM 33.5969 -84.5500 241° Southwest 285 328 5,400 2,460 Climbing Atlanta Center
12:25PM 33.5467 -84.5997 220° Southwest 263 303 7,300 2,040 Climbing Atlanta Center
12:26PM 33.4861 -84.5842 168° South 259 298 9,500 1,800 Climbing Atlanta Center
12:27PM 33.4783 -84.4897 96° East 237 273 10,900 1,260 Climbing Atlanta Center
12:28PM 33.4892 -84.3775 83° East 273 314 12,100 1,320 Climbing Atlanta Center
12:29PM 33.5039 -84.2606 81° East 334 384 13,600 1,740 Climbing Atlanta Center
12:30PM 33.5167 -84.1358 83° East 364 419 15,600 1,980 Climbing Atlanta Center
12:31PM 33.5417 -84.0114 76° East 376 433 17,600 1,740 Climbing Atlanta Center
12:32PM 33.5769 -83.8892 71° East 382 440 19,100 1,440 Climbing Atlanta Center
12:33PM 33.6019 -83.7594 77° East 388 447 20,500 1,440 Climbing Atlanta Center
12:34PM 33.6350 -83.6272 73° East 403 464 22,000 1,080 Climbing Atlanta Center
12:35PM 33.6700 -83.4897 73° East 417 480 22,700 480 Climbing Atlanta Center
12:36PM 33.6900 -83.3297 81° East 430 495 23,000 120 Climbing Atlanta Center
12:37PM 33.7078 -83.1797 82° East 445 512 23,000  Level Atlanta Center
12:38PM 33.7086 -83.0300 90° East 445 512 23,000  Level Atlanta Center
12:39PM 33.6906 -82.8803 98° East 446 513 23,000  Level Atlanta Center
12:40PM 33.6767 -82.7308 96° East 451 519 23,000 -60 Level Atlanta Center
12:41PM 33.6833 -82.5808 87° East 451 519 22,900 -1,020 Descending Atlanta Center
12:42PM 33.7044 -82.4356 80° East 446 513 21,000 -2,580 Descending Atlanta Center
12:43PM 33.7339 -82.3003 75° East 421 484 17,800 -2,640 Descending Atlanta Center
12:45PM 33.8294 -82.0550 65° Northeast 410 472 13,100 -1,980 Descending Jacksonville Center
12:46PM 33.8725 -81.9444 65° Northeast 387 445 11,800 -1,140 Descending Jacksonville Center
12:47PM 33.9175 -81.8364 63° Northeast 365 420 10,900 -840 Descending Jacksonville Center
12:48PM 33.9269 -81.7236 84° East 343 395 10,200 -1,440 Descending Jacksonville Center
12:49PM 33.9239 -81.6236 92° East 316 364 8,100 -2,220 Descending Jacksonville Center
12:50PM 33.9439 -81.5358 75° East 289 333 5,800 -2,100 Descending Jacksonville Center
12:51PM 33.9847 -81.4550 59° Northeast 271 312 4,000 -1,320 Descending Jacksonville Center
12:52PM 33.9983 -81.3772 78° East 252 290 3,200 -720 Descending Jacksonville Center
12:53PM 33.9831 -81.3172 107° East 190 219 2,600 -600 Descending Jacksonville Center